createdAt,value
2022-12-08T00:01:35.109Z,60.15
2022-12-08T00:04:04.451Z,56.22
2022-12-08T00:06:59.269Z,56.10
2022-12-08T00:09:42.165Z,52.60
2022-12-08T00:12:13.046Z,57.72
2022-12-08T00:14:45.522Z,59.25
2022-12-08T00:17:15.442Z,57.55
2022-12-08T00:19:44.089Z,55.03
2022-12-08T00:22:13.364Z,61.65
2022-12-08T00:24:44.181Z,54.22
2022-12-08T00:27:13.590Z,58.85
2022-12-08T00:29:43.716Z,60.47
2022-12-08T00:32:11.478Z,60.63
2022-12-08T00:34:38.962Z,58.95
2022-12-08T00:42:13.188Z,54.20
2022-12-08T00:44:42.523Z,56.80
2022-12-08T00:47:10.749Z,60.85
2022-12-08T00:49:38.283Z,52.13
2022-12-08T01:01:54.830Z,51.65
2022-12-08T01:09:18.390Z,51.53
2022-12-08T01:11:46.900Z,52.80
2022-12-08T01:14:14.633Z,52.67
2022-12-08T01:16:42.614Z,55.63
2022-12-08T01:19:13.934Z,52.72
2022-12-08T01:21:42.608Z,54.55
2022-12-08T01:24:14.801Z,53.88
2022-12-08T01:26:42.473Z,50.78
2022-12-08T01:29:10.808Z,68.10
2022-12-08T01:31:39.208Z,65.78
2022-12-08T01:34:07.493Z,58.22
2022-12-08T01:36:39.022Z,53.78
2022-12-08T01:39:11.010Z,50.15
2022-12-08T01:41:38.853Z,55.22
2022-12-08T01:44:09.434Z,53.70
2022-12-08T01:46:42.210Z,63.28
2022-12-08T01:49:15.675Z,62.58
2022-12-08T01:52:08.103Z,53.65
2022-12-08T01:54:42.338Z,53.65
2022-12-08T01:57:38.843Z,55.35
2022-12-08T02:00:10.125Z,56.38
2022-12-08T02:02:50.481Z,53.22
2022-12-08T02:05:21.203Z,52.53
2022-12-08T02:07:49.557Z,52.72
2022-12-08T02:10:21.380Z,58.35
2022-12-08T02:12:52.118Z,50.45
2022-12-08T02:15:23.269Z,56.58
2022-12-08T02:18:09.496Z,56.15
2022-12-08T02:20:51.708Z,54.57
2022-12-08T02:23:35.647Z,49.17
2022-12-08T02:26:30.534Z,56.25
2022-12-08T02:29:00.728Z,60.67
2022-12-08T02:31:46.895Z,60.15
2022-12-08T02:34:39.686Z,53.97
2022-12-08T02:37:16.704Z,57.33
2022-12-08T02:40:02.747Z,48.75
2022-12-08T02:42:47.220Z,52.80
2022-12-08T02:45:25.706Z,49.58
2022-12-08T02:47:54.313Z,50.08
2022-12-08T02:50:21.845Z,45.53
2022-12-08T02:52:49.368Z,35.15
2022-12-08T02:57:58.600Z,36.92
2022-12-08T03:00:29.720Z,36.55
2022-12-08T03:03:16.312Z,35.17
2022-12-08T03:06:07.012Z,31.08
2022-12-08T03:08:37.283Z,34.33
2022-12-08T03:11:37.172Z,36.83
2022-12-08T03:14:09.077Z,37.83
2022-12-08T03:16:40.488Z,34.78
2022-12-08T03:19:21.762Z,38.78
2022-12-08T03:21:53.670Z,42.25
2022-12-08T03:24:23.395Z,47.83
2022-12-08T03:27:03.806Z,42.88
2022-12-08T03:29:32.669Z,40.83
2022-12-08T03:32:33.910Z,37.83
2022-12-08T03:35:09.420Z,44.72
2022-12-08T03:37:38.623Z,43.25
2022-12-08T03:40:09.166Z,45.60
2022-12-08T03:42:36.820Z,42.30
2022-12-08T03:45:05.212Z,43.13
2022-12-08T03:47:33.131Z,39.65
2022-12-08T03:50:00.839Z,38.25
2022-12-08T03:52:28.392Z,37.28
2022-12-08T03:57:23.244Z,37.83
2022-12-08T03:59:50.640Z,37.83
2022-12-08T04:07:12.772Z,31.63
2022-12-08T04:09:41.657Z,35.67
2022-12-08T04:12:09.652Z,33.40
2022-12-08T04:14:37.114Z,36.03
2022-12-08T04:19:32.094Z,33.25
2022-12-08T04:21:59.570Z,30.92
2022-12-08T04:24:26.986Z,33.20
2022-12-08T04:26:54.469Z,34.15
2022-12-08T04:29:21.942Z,29.48
2022-12-08T04:34:16.682Z,28.25
2022-12-08T04:39:11.462Z,28.40
2022-12-08T04:53:55.307Z,25.60
2022-12-08T05:08:43.485Z,30.60
2022-12-08T05:11:12.735Z,25.65
2022-12-08T05:13:40.365Z,28.27
2022-12-08T05:16:10.834Z,26.02
2022-12-08T05:18:39.862Z,29.05
2022-12-08T05:21:07.841Z,29.90
2022-12-08T05:23:36.155Z,42.45
2022-12-08T05:26:03.696Z,40.35
2022-12-08T05:31:15.279Z,40.42
2022-12-08T05:33:43.942Z,38.75
2022-12-08T05:36:14.890Z,41.33
2022-12-08T05:38:43.313Z,50.85
2022-12-08T05:41:17.004Z,37.10
2022-12-08T05:43:44.950Z,44.38
2022-12-08T05:46:13.312Z,39.67
2022-12-08T05:48:41.283Z,40.03
2022-12-08T05:51:18.320Z,37.53
2022-12-08T05:53:46.935Z,38.17
2022-12-08T05:56:14.726Z,42.42
2022-12-08T05:58:42.948Z,42.00
2022-12-08T06:01:28.078Z,57.92
2022-12-08T06:03:57.089Z,40.22
2022-12-08T06:06:24.898Z,42.35
2022-12-08T06:08:53.124Z,43.60
2022-12-08T06:11:25.461Z,40.03
2022-12-08T06:13:53.868Z,56.13
2022-12-08T06:16:21.312Z,46.20
2022-12-08T06:18:49.655Z,36.55
2022-12-08T06:21:17.672Z,37.22
2022-12-08T06:23:48.885Z,37.20
2022-12-08T06:26:17.497Z,44.70
2022-12-08T06:28:45.409Z,42.88
2022-12-08T06:31:18.791Z,38.88
2022-12-08T06:33:47.040Z,38.92
2022-12-08T06:36:16.972Z,43.67
2022-12-08T06:38:44.660Z,37.92
2022-12-08T06:41:13.420Z,45.05
2022-12-08T06:43:41.235Z,40.35
2022-12-08T06:46:13.929Z,35.83
2022-12-08T06:48:42.812Z,38.55
2022-12-08T06:51:17.219Z,40.10
2022-12-08T06:53:46.563Z,36.17
2022-12-08T06:56:16.241Z,36.53
2022-12-08T06:58:49.018Z,38.30
2022-12-08T07:01:20.064Z,38.85
2022-12-08T07:03:47.971Z,37.00
2022-12-08T07:06:18.664Z,45.58
2022-12-08T07:08:46.110Z,37.60
2022-12-08T07:13:48.977Z,41.22
2022-12-08T07:16:16.704Z,56.20
2022-12-08T07:18:44.341Z,47.95
2022-12-08T07:23:42.995Z,36.53
2022-12-08T07:26:12.209Z,40.17
2022-12-08T07:28:41.601Z,32.97
2022-12-08T07:31:18.147Z,35.55
2022-12-08T07:33:45.921Z,39.60
2022-12-08T07:36:13.589Z,40.97
2022-12-08T07:38:41.277Z,39.22
2022-12-08T07:41:19.402Z,35.38
2022-12-08T07:43:47.037Z,35.20
2022-12-08T07:48:43.894Z,44.47
2022-12-08T07:51:14.132Z,41.05
2022-12-08T07:53:51.574Z,49.17
2022-12-08T07:56:22.135Z,50.22
2022-12-08T07:58:49.577Z,55.00
2022-12-08T08:03:49.699Z,45.10
2022-12-08T08:06:17.215Z,37.92
2022-12-08T08:08:45.131Z,37.38
2022-12-08T08:11:17.397Z,40.30
2022-12-08T08:13:49.755Z,32.40
2022-12-08T08:16:18.346Z,35.63
2022-12-08T08:18:51.174Z,38.15
2022-12-08T08:24:08.855Z,34.13
2022-12-08T08:26:37.360Z,37.50
2022-12-08T08:29:05.302Z,32.38
2022-12-08T08:31:32.996Z,36.53
2022-12-08T08:34:05.107Z,58.90
2022-12-08T08:36:33.934Z,35.92
2022-12-08T08:39:01.415Z,31.77
2022-12-08T08:41:31.631Z,29.85
2022-12-08T08:43:59.203Z,33.97
2022-12-08T08:46:27.522Z,33.42
2022-12-08T08:48:55.081Z,34.33
2022-12-08T08:51:23.710Z,37.28
2022-12-08T08:53:51.187Z,38.75
2022-12-08T08:56:20.333Z,39.55
2022-12-08T08:58:49.719Z,34.60
2022-12-08T09:01:25.715Z,29.42
2022-12-08T09:03:56.496Z,28.67
2022-12-08T09:06:24.768Z,29.20
2022-12-08T09:08:54.629Z,31.10
2022-12-08T09:11:26.262Z,37.05
2022-12-08T09:13:54.853Z,30.63
2022-12-08T09:16:23.045Z,37.85
2022-12-08T09:18:51.220Z,39.08
2022-12-08T09:21:22.613Z,35.30
2022-12-08T09:23:51.867Z,34.05
2022-12-08T09:26:22.525Z,33.85
2022-12-08T09:28:51.681Z,35.85
2022-12-08T09:31:21.257Z,32.78
2022-12-08T09:33:51.677Z,35.13
2022-12-08T09:36:19.960Z,30.45
2022-12-08T09:38:49.273Z,36.95
2022-12-08T09:41:37.862Z,34.65
2022-12-08T09:44:26.937Z,37.67
2022-12-08T09:46:59.058Z,35.95
2022-12-08T09:49:40.196Z,33.90
2022-12-08T09:52:18.455Z,38.25
2022-12-08T09:54:46.025Z,35.03
2022-12-08T09:59:52.856Z,32.95
2022-12-08T10:02:24.261Z,42.72
2022-12-08T10:04:58.648Z,36.42
2022-12-08T10:07:40.298Z,33.55
2022-12-08T10:10:24.225Z,31.75
2022-12-08T10:13:07.347Z,34.22
2022-12-08T10:15:44.349Z,43.28
2022-12-08T10:18:20.791Z,39.35
2022-12-08T10:20:50.781Z,28.83
2022-12-08T10:23:35.824Z,32.35
2022-12-08T10:26:11.987Z,31.65
2022-12-08T10:28:44.875Z,40.08
2022-12-08T10:31:25.010Z,37.33
2022-12-08T10:34:12.039Z,31.42
2022-12-08T10:36:49.463Z,30.53
2022-12-08T10:39:43.950Z,33.03
2022-12-08T10:42:18.707Z,26.52
2022-12-08T10:44:57.872Z,31.85
2022-12-08T10:47:30.461Z,29.15
2022-12-08T10:50:17.479Z,31.02
2022-12-08T10:55:19.594Z,26.90
2022-12-08T10:57:55.096Z,31.73
2022-12-08T11:00:28.760Z,26.45
2022-12-08T11:03:05.135Z,24.08
2022-12-08T11:05:35.584Z,29.40
2022-12-08T11:08:05.320Z,37.25
2022-12-08T11:10:53.122Z,26.63
2022-12-08T11:13:27.784Z,30.88
2022-12-08T11:15:56.991Z,28.85
2022-12-08T11:18:40.695Z,27.75
2022-12-08T11:21:15.573Z,31.70
2022-12-08T11:23:48.090Z,42.22
2022-12-08T11:26:31.957Z,27.85
2022-12-08T11:28:59.583Z,27.63
2022-12-08T11:31:29.657Z,27.88
2022-12-08T11:33:57.483Z,29.33
2022-12-08T11:36:27.927Z,31.50
2022-12-08T11:39:02.913Z,24.45
2022-12-08T11:41:41.060Z,30.77
2022-12-08T11:44:29.180Z,24.88
2022-12-08T11:47:02.749Z,27.80
2022-12-08T11:49:37.809Z,27.90
2022-12-08T11:52:29.353Z,29.63
2022-12-08T11:55:22.391Z,29.95
2022-12-08T11:57:52.004Z,27.58
2022-12-08T12:00:19.845Z,25.23
2022-12-08T12:02:55.372Z,31.13
2022-12-08T12:08:58.410Z,28.98
2022-12-08T12:12:19.362Z,31.70
2022-12-08T12:14:57.249Z,26.27
2022-12-08T12:17:39.937Z,35.78
2022-12-08T12:20:32.972Z,32.63
2022-12-08T12:23:11.416Z,29.83
2022-12-08T12:25:51.172Z,28.23
2022-12-08T12:28:22.688Z,26.35
2022-12-08T12:31:06.559Z,25.95
2022-12-08T12:33:36.180Z,24.08
2022-12-08T12:36:07.856Z,22.20
2022-12-08T12:38:57.634Z,24.65
2022-12-08T12:41:33.034Z,19.92
2022-12-08T12:44:13.141Z,20.88
2022-12-08T12:46:48.522Z,25.25
2022-12-08T12:49:40.704Z,24.00
2022-12-08T12:52:18.129Z,24.35
2022-12-08T12:57:38.680Z,15.50
2022-12-08T13:00:09.381Z,20.92
2022-12-08T13:02:49.184Z,20.88
2022-12-08T13:05:29.271Z,21.60
2022-12-08T13:08:05.177Z,21.77
2022-12-08T13:10:41.340Z,21.88
2022-12-08T13:13:16.516Z,24.85
2022-12-08T13:15:52.939Z,23.65
2022-12-08T13:18:25.177Z,25.98
2022-12-08T13:21:11.162Z,25.40
2022-12-08T13:23:38.620Z,27.65
2022-12-08T13:26:09.393Z,23.17
2022-12-08T13:29:17.888Z,20.98
2022-12-08T13:31:51.048Z,32.45
2022-12-08T13:34:29.281Z,32.22
2022-12-08T13:37:11.876Z,35.30
2022-12-08T13:39:39.517Z,37.63
2022-12-08T13:46:12.238Z,35.90
2022-12-08T13:48:26.669Z,30.13
2022-12-08T13:57:10.560Z,21.00
2022-12-08T13:59:45.003Z,18.45
2022-12-08T14:02:46.873Z,19.10
2022-12-08T14:05:40.621Z,19.00
2022-12-08T14:08:10.109Z,19.08
2022-12-08T14:10:37.778Z,19.98
2022-12-08T14:15:38.243Z,18.73
2022-12-08T14:18:21.380Z,19.83
2022-12-08T14:21:22.393Z,20.10
2022-12-08T14:23:49.881Z,18.75
2022-12-08T14:26:18.068Z,19.50
2022-12-08T14:28:45.608Z,23.95
2022-12-08T14:31:14.727Z,21.38
2022-12-08T14:33:43.214Z,23.15
2022-12-08T14:36:12.411Z,22.52
2022-12-08T14:38:40.160Z,22.55
2022-12-08T14:41:10.096Z,22.10
2022-12-08T14:43:37.838Z,26.02
2022-12-08T14:46:20.397Z,26.35
2022-12-08T14:48:48.180Z,23.90
2022-12-08T14:51:21.686Z,21.58
2022-12-08T14:53:58.790Z,20.48
2022-12-08T15:01:32.649Z,22.33
2022-12-08T15:04:09.240Z,18.85
2022-12-08T15:06:37.144Z,22.88
2022-12-08T15:09:17.910Z,22.65
2022-12-08T15:11:45.460Z,24.08
2022-12-08T15:17:00.971Z,24.65
2022-12-08T15:19:34.086Z,22.88
2022-12-08T15:22:23.075Z,21.95
2022-12-08T15:24:50.641Z,20.70
2022-12-08T15:29:48.013Z,24.80
2022-12-08T15:32:21.518Z,23.92
2022-12-08T15:34:49.316Z,25.52
2022-12-08T15:37:24.789Z,23.63
2022-12-08T15:39:53.181Z,24.60
2022-12-08T15:42:20.638Z,27.45
2022-12-08T15:49:49.664Z,25.88
2022-12-08T15:52:20.402Z,21.60
2022-12-08T15:54:49.144Z,22.67
2022-12-08T15:58:04.097Z,22.08
2022-12-08T16:09:23.763Z,23.58
2022-12-08T16:12:10.647Z,21.30
2022-12-08T16:17:28.034Z,22.75
2022-12-08T16:19:55.725Z,23.25
2022-12-08T16:25:18.899Z,24.33
2022-12-08T16:30:37.261Z,25.13
2022-12-08T16:33:05.183Z,22.38
2022-12-08T16:35:33.034Z,23.15
2022-12-08T16:38:00.652Z,21.35
2022-12-08T16:40:28.153Z,22.13
2022-12-08T16:47:54.635Z,21.90
2022-12-08T16:50:24.971Z,22.55
2022-12-08T16:53:01.586Z,23.38
2022-12-08T16:55:29.218Z,26.33
2022-12-08T17:00:26.423Z,23.40
2022-12-08T17:02:54.926Z,25.15
2022-12-08T17:05:25.148Z,24.60
2022-12-08T17:07:54.093Z,23.60
2022-12-08T17:10:25.305Z,24.67
2022-12-08T17:12:53.272Z,25.20
2022-12-08T17:15:23.818Z,25.73
2022-12-08T17:17:52.214Z,26.50
2022-12-08T17:20:22.578Z,25.40
2022-12-08T17:22:53.985Z,26.33
2022-12-08T17:25:21.619Z,25.20
2022-12-08T17:27:49.110Z,27.58
2022-12-08T17:32:45.366Z,26.98
2022-12-08T17:35:13.509Z,31.23
2022-12-08T17:37:41.077Z,25.42
2022-12-08T17:40:09.378Z,26.85
2022-12-08T17:42:38.116Z,25.95
2022-12-08T17:45:07.971Z,27.35
2022-12-08T17:47:36.891Z,28.85
2022-12-08T17:50:06.752Z,30.50
2022-12-08T17:52:34.655Z,26.40
2022-12-08T17:55:02.195Z,30.40
2022-12-08T17:57:30.947Z,29.50
2022-12-08T17:59:58.495Z,29.55
2022-12-08T18:02:26.242Z,29.92
2022-12-08T18:04:53.921Z,29.15
2022-12-08T18:07:21.419Z,31.83
2022-12-08T18:12:20.699Z,28.77
2022-12-08T18:14:52.384Z,32.65
2022-12-08T18:17:20.674Z,31.15
2022-12-08T18:19:48.453Z,33.35
2022-12-08T18:22:16.185Z,31.17
2022-12-08T18:24:44.150Z,27.33
2022-12-08T18:27:11.555Z,29.98
2022-12-08T18:32:08.412Z,29.80
2022-12-08T18:34:36.105Z,30.90
2022-12-08T18:37:03.907Z,31.63
2022-12-08T18:39:33.230Z,33.45
2022-12-08T18:42:21.934Z,30.70
2022-12-08T18:44:56.307Z,33.08
2022-12-08T18:47:24.270Z,30.90
2022-12-08T18:49:51.826Z,33.35
2022-12-08T18:52:26.913Z,33.30
2022-12-08T18:55:06.420Z,36.47
2022-12-08T18:57:37.519Z,36.03
2022-12-08T19:00:09.343Z,33.88
2022-12-08T19:02:38.918Z,37.90
2022-12-08T19:05:08.105Z,37.70
2022-12-08T19:07:35.932Z,40.97
2022-12-08T19:10:05.899Z,40.03
2022-12-08T19:12:33.885Z,40.35
2022-12-08T19:15:01.428Z,36.80
2022-12-08T19:17:29.822Z,40.65
2022-12-08T19:19:57.314Z,39.97
2022-12-08T19:27:19.739Z,40.88
2022-12-08T19:29:47.321Z,38.78
2022-12-08T19:32:14.822Z,42.08
2022-12-08T19:37:14.351Z,39.33
2022-12-08T19:42:46.704Z,42.50
2022-12-08T19:45:17.881Z,38.78
2022-12-08T19:47:45.685Z,36.35
2022-12-08T19:50:33.874Z,36.00
2022-12-08T19:53:02.271Z,39.13
2022-12-08T19:55:29.758Z,35.05
2022-12-08T20:00:24.805Z,30.50
2022-12-08T20:02:52.432Z,33.50
2022-12-08T20:05:20.890Z,34.20
2022-12-08T20:07:48.571Z,35.05
2022-12-08T20:10:19.718Z,28.75
2022-12-08T20:12:47.314Z,32.42
2022-12-08T20:15:15.016Z,27.83
2022-12-08T20:17:43.045Z,28.63
2022-12-08T20:20:12.940Z,29.65
2022-12-08T20:22:40.795Z,29.70
2022-12-08T20:25:12.838Z,28.08
2022-12-08T20:27:41.761Z,25.40
2022-12-08T20:30:15.068Z,25.75
2022-12-08T20:32:45.453Z,31.98
2022-12-08T20:35:13.202Z,31.88
2022-12-08T20:37:40.654Z,32.80
2022-12-08T20:40:08.722Z,34.33
2022-12-08T20:42:36.332Z,36.20
2022-12-08T20:45:06.582Z,36.33
2022-12-08T20:47:34.950Z,33.80
2022-12-08T20:50:03.730Z,37.10
2022-12-08T20:52:32.238Z,34.55
2022-12-08T20:54:59.705Z,30.38
2022-12-08T20:57:27.525Z,31.77
2022-12-08T20:59:55.008Z,31.48
2022-12-08T21:02:22.872Z,30.50
2022-12-08T21:04:50.444Z,36.45
2022-12-08T21:07:18.099Z,29.25
2022-12-08T21:09:45.891Z,30.20
2022-12-08T21:12:13.623Z,32.15
2022-12-08T21:14:41.018Z,28.77
2022-12-08T21:19:36.004Z,30.00
2022-12-08T21:24:34.262Z,27.92
2022-12-08T21:27:02.657Z,30.52
2022-12-08T21:29:30.203Z,31.77
2022-12-08T21:31:58.765Z,33.55
2022-12-08T21:34:31.868Z,28.10
2022-12-08T21:37:00.655Z,29.05
2022-12-08T21:39:29.840Z,28.45
2022-12-08T21:42:16.288Z,29.50
2022-12-08T21:44:44.149Z,30.75
2022-12-08T21:47:12.747Z,29.52
2022-12-08T21:49:40.472Z,29.35
2022-12-08T21:54:36.422Z,29.33
2022-12-08T21:57:04.147Z,28.85
2022-12-08T21:59:31.847Z,26.77
2022-12-08T22:01:59.504Z,31.23
2022-12-08T22:04:27.515Z,28.60
2022-12-08T22:06:55.129Z,33.10
2022-12-08T22:09:22.804Z,31.42
2022-12-08T22:11:50.551Z,32.78
2022-12-08T22:14:18.209Z,32.13
2022-12-08T22:19:13.520Z,32.60
2022-12-08T22:21:41.595Z,33.50
2022-12-08T22:24:09.489Z,31.23
2022-12-08T22:26:37.093Z,28.05
2022-12-08T22:29:04.524Z,30.25
2022-12-08T22:31:32.207Z,29.25
2022-12-08T22:33:59.964Z,33.03
2022-12-08T22:36:28.450Z,28.92
2022-12-08T22:38:56.540Z,32.67
2022-12-08T22:41:24.075Z,30.42
2022-12-08T22:43:51.724Z,29.52
2022-12-08T22:46:24.451Z,30.45
2022-12-08T22:48:54.153Z,29.30
2022-12-08T22:51:22.073Z,29.20
2022-12-08T22:53:50.502Z,28.83
2022-12-08T22:56:19.704Z,27.80
2022-12-08T22:58:47.408Z,32.42
2022-12-08T23:01:34.115Z,29.35
2022-12-08T23:04:02.115Z,31.27
2022-12-08T23:06:30.500Z,31.08
2022-12-08T23:08:58.541Z,30.67
2022-12-08T23:11:29.768Z,32.13
2022-12-08T23:14:01.078Z,29.10
2022-12-08T23:16:30.768Z,30.40
2022-12-08T23:18:59.166Z,27.77
2022-12-08T23:21:27.053Z,24.45
2022-12-08T23:23:54.727Z,27.67
2022-12-08T23:26:24.811Z,27.73
2022-12-08T23:28:52.823Z,25.35
2022-12-08T23:31:21.496Z,29.42
2022-12-08T23:33:49.313Z,23.00
2022-12-08T23:36:18.376Z,21.38
2022-12-08T23:38:46.579Z,24.25
2022-12-08T23:41:15.552Z,23.73
2022-12-08T23:43:45.502Z,24.63
2022-12-08T23:46:14.408Z,25.25
2022-12-08T23:48:42.179Z,24.38
2022-12-08T23:51:10.530Z,26.70
2022-12-08T23:53:38.204Z,26.15
2022-12-08T23:56:08.986Z,25.70
2022-12-08T23:58:37.549Z,24.08
